createdAt,value
2019-02-19T00:00:36.015Z,11.43
2019-02-19T00:02:40.382Z,12.00
2019-02-19T00:04:45.445Z,11.57
2019-02-19T00:06:54.458Z,12.60
2019-02-19T00:09:01.345Z,12.10
2019-02-19T00:11:06.271Z,13.13
2019-02-19T00:13:10.467Z,18.07
2019-02-19T00:15:14.738Z,69.43
2019-02-19T00:17:19.574Z,132.70
2019-02-19T00:19:23.931Z,222.83
2019-02-19T00:21:28.334Z,143.23
2019-02-19T00:23:32.526Z,161.77
2019-02-19T00:25:37.210Z,194.47
2019-02-19T00:27:41.933Z,180.83
2019-02-19T00:29:46.693Z,146.97
2019-02-19T00:31:54.729Z,127.10
2019-02-19T00:34:01.257Z,107.60
2019-02-19T00:36:10.390Z,107.83
2019-02-19T00:38:15.080Z,93.40
2019-02-19T00:40:19.251Z,116.97
2019-02-19T00:42:23.751Z,102.00
2019-02-19T00:44:28.046Z,72.83
2019-02-19T00:46:32.417Z,137.00
2019-02-19T00:48:36.848Z,70.63
2019-02-19T00:50:40.993Z,123.87
2019-02-19T00:52:45.383Z,114.03
2019-02-19T00:54:50.056Z,64.53
2019-02-19T00:56:56.071Z,104.53
2019-02-19T00:59:03.449Z,375.33
2019-02-19T01:01:13.951Z,187.40
2019-02-19T01:03:18.235Z,187.93
2019-02-19T01:05:25.910Z,189.80
2019-02-19T01:07:30.690Z,152.40
2019-02-19T01:09:34.873Z,153.60
2019-02-19T01:11:39.556Z,131.77
2019-02-19T01:13:43.956Z,115.93
2019-02-19T01:15:49.050Z,118.60
2019-02-19T01:17:53.605Z,100.87
2019-02-19T01:19:58.906Z,94.43
2019-02-19T01:22:07.081Z,76.00
2019-02-19T01:24:14.390Z,230.03
2019-02-19T01:26:19.470Z,226.03
2019-02-19T01:28:24.673Z,190.67
2019-02-19T01:30:28.844Z,225.00
2019-02-19T01:32:33.746Z,188.20
2019-02-19T01:34:39.113Z,150.40
2019-02-19T01:36:43.342Z,132.33
2019-02-19T01:38:49.993Z,105.27
2019-02-19T01:40:54.289Z,93.93
2019-02-19T01:42:58.917Z,85.20
2019-02-19T01:45:09.058Z,76.97
2019-02-19T01:47:16.516Z,80.63
2019-02-19T01:49:20.666Z,68.50
2019-02-19T01:51:24.877Z,62.80
2019-02-19T01:53:29.198Z,69.23
2019-02-19T01:55:33.633Z,60.17
2019-02-19T01:57:41.704Z,52.63
2019-02-19T01:59:48.471Z,50.93
2019-02-19T02:01:55.275Z,52.97
2019-02-19T02:03:59.474Z,55.70
2019-02-19T02:06:03.704Z,52.07
2019-02-19T02:08:08.063Z,46.80
2019-02-19T02:10:12.491Z,37.77
2019-02-19T02:12:16.732Z,40.50
2019-02-19T02:14:22.459Z,47.13
2019-02-19T02:16:27.264Z,39.33
2019-02-19T02:18:32.073Z,34.60
2019-02-19T02:20:36.438Z,37.10
2019-02-19T02:22:43.635Z,28.73
2019-02-19T02:24:51.609Z,34.63
2019-02-19T02:26:58.977Z,28.30
2019-02-19T02:29:03.131Z,34.47
2019-02-19T02:31:07.388Z,31.00
2019-02-19T02:33:11.646Z,30.20
2019-02-19T02:35:15.825Z,30.10
2019-02-19T02:37:20.357Z,30.40
2019-02-19T02:39:24.557Z,26.47
2019-02-19T02:41:29.131Z,25.93
2019-02-19T02:43:33.277Z,25.00
2019-02-19T02:45:37.835Z,24.80
2019-02-19T02:47:42.305Z,18.60
2019-02-19T02:49:50.384Z,19.33
2019-02-19T02:51:56.866Z,17.90
2019-02-19T02:54:08.134Z,16.07
2019-02-19T02:56:12.622Z,18.30
2019-02-19T02:58:17.331Z,15.53
2019-02-19T03:00:21.894Z,17.43
2019-02-19T03:02:26.505Z,14.53
2019-02-19T03:04:30.892Z,14.93
2019-02-19T03:06:40.185Z,16.70
2019-02-19T03:08:44.753Z,15.40
2019-02-19T03:10:52.055Z,14.67
2019-02-19T03:13:00.161Z,14.73
2019-02-19T03:15:06.727Z,14.67
2019-02-19T03:17:10.904Z,13.93
2019-02-19T03:19:15.058Z,14.00
2019-02-19T03:21:19.355Z,12.30
2019-02-19T03:23:23.722Z,12.80
2019-02-19T03:25:28.164Z,13.00
2019-02-19T03:27:32.583Z,13.30
2019-02-19T03:29:36.874Z,12.47
2019-02-19T03:31:41.225Z,10.97
2019-02-19T03:33:45.442Z,11.03
2019-02-19T03:35:49.621Z,11.47
2019-02-19T03:37:56.559Z,11.10
2019-02-19T03:40:04.844Z,10.20
2019-02-19T03:42:09.401Z,9.57
2019-02-19T03:44:14.042Z,9.10
2019-02-19T03:46:18.316Z,9.17
2019-02-19T03:48:22.492Z,10.20
2019-02-19T03:50:26.631Z,9.47
2019-02-19T03:52:32.040Z,9.53
2019-02-19T03:54:37.747Z,9.00
2019-02-19T03:56:42.100Z,9.03
2019-02-19T03:58:46.363Z,8.80
2019-02-19T04:00:51.919Z,8.60
2019-02-19T04:02:57.171Z,8.50
2019-02-19T04:05:05.355Z,8.43
2019-02-19T04:07:12.931Z,8.30
2019-02-19T04:09:17.502Z,8.20
2019-02-19T04:11:21.738Z,8.40
2019-02-19T04:13:25.892Z,8.30
2019-02-19T04:15:30.246Z,8.50
2019-02-19T04:17:34.393Z,8.23
2019-02-19T04:19:41.030Z,7.83
2019-02-19T04:21:45.992Z,8.10
2019-02-19T04:23:50.532Z,7.83
2019-02-19T04:25:54.699Z,6.30
2019-02-19T04:27:59.625Z,7.07
2019-02-19T04:30:08.135Z,6.90
2019-02-19T04:32:13.268Z,6.80
2019-02-19T04:34:21.258Z,7.30
2019-02-19T04:36:25.475Z,7.20
2019-02-19T04:38:29.729Z,6.87
2019-02-19T04:40:34.062Z,6.43
2019-02-19T04:42:38.209Z,6.97
2019-02-19T04:44:42.502Z,6.73
2019-02-19T04:46:47.974Z,7.00
2019-02-19T04:48:52.127Z,6.53
2019-02-19T04:50:56.375Z,7.17
2019-02-19T04:53:00.539Z,6.20
2019-02-19T04:55:04.813Z,7.20
2019-02-19T04:57:08.973Z,6.00
2019-02-19T04:59:13.148Z,6.60
2019-02-19T05:01:17.373Z,6.23
2019-02-19T05:03:21.546Z,5.90
2019-02-19T05:05:26.081Z,6.67
2019-02-19T05:07:30.409Z,6.40
2019-02-19T05:09:34.538Z,6.20
2019-02-19T05:11:39.795Z,7.00
2019-02-19T05:13:51.569Z,6.77
2019-02-19T05:16:06.359Z,5.93
2019-02-19T05:18:10.657Z,5.73
2019-02-19T05:20:15.135Z,6.40
2019-02-19T05:22:19.521Z,6.00
2019-02-19T05:24:23.703Z,6.50
2019-02-19T05:26:27.920Z,6.50
2019-02-19T05:28:32.312Z,6.90
2019-02-19T05:30:36.574Z,6.77
2019-02-19T05:32:41.115Z,6.07
2019-02-19T05:34:49.371Z,6.17
2019-02-19T05:36:58.313Z,5.77
2019-02-19T05:39:04.214Z,5.87
2019-02-19T05:41:08.366Z,6.03
2019-02-19T05:43:13.227Z,6.20
2019-02-19T05:45:18.566Z,6.27
2019-02-19T05:47:22.865Z,6.53
2019-02-19T05:49:27.178Z,6.50
2019-02-19T05:51:31.619Z,6.20
2019-02-19T05:53:36.035Z,6.57
2019-02-19T05:55:40.693Z,6.60
2019-02-19T05:57:45.179Z,6.17
2019-02-19T05:59:53.204Z,6.50
2019-02-19T06:01:57.527Z,5.80
2019-02-19T06:04:04.984Z,5.50
2019-02-19T06:06:12.280Z,5.40
2019-02-19T06:08:17.051Z,6.30
2019-02-19T06:10:21.315Z,6.23
2019-02-19T06:12:29.353Z,5.60
2019-02-19T06:14:33.737Z,6.63
2019-02-19T06:16:38.091Z,6.70
2019-02-19T06:18:42.758Z,6.50
2019-02-19T06:20:47.118Z,5.50
2019-02-19T06:22:52.273Z,5.00
2019-02-19T06:25:00.114Z,5.60
2019-02-19T06:27:05.524Z,5.90
2019-02-19T06:29:10.155Z,5.73
2019-02-19T06:31:14.453Z,5.67
2019-02-19T06:33:18.561Z,5.60
2019-02-19T06:35:22.766Z,6.30
2019-02-19T06:37:26.948Z,6.17
2019-02-19T06:39:31.426Z,12.87
2019-02-19T06:41:35.622Z,148.70
2019-02-19T06:43:40.012Z,304.63
2019-02-19T06:45:44.290Z,526.93
2019-02-19T06:47:48.596Z,311.13
2019-02-19T06:49:52.812Z,244.70
2019-02-19T06:51:57.443Z,208.47
2019-02-19T06:54:05.660Z,287.43
2019-02-19T06:56:12.478Z,586.97
2019-02-19T06:58:17.467Z,644.73
2019-02-19T07:00:21.712Z,572.07
2019-02-19T07:02:43.872Z,493.90
2019-02-19T07:04:52.333Z,419.63
2019-02-19T07:06:56.561Z,367.33
2019-02-19T07:09:01.053Z,342.40
2019-02-19T07:11:09.590Z,323.80
2019-02-19T07:13:14.513Z,316.97
2019-02-19T07:15:25.009Z,310.10
2019-02-19T07:17:29.484Z,302.53
2019-02-19T07:19:34.357Z,296.00
2019-02-19T07:21:42.529Z,288.53
2019-02-19T07:23:52.521Z,325.30
2019-02-19T07:25:57.128Z,643.00
2019-02-19T07:28:01.882Z,622.73
2019-02-19T07:30:06.490Z,310.30
2019-02-19T07:32:10.786Z,285.57
2019-02-19T07:34:14.945Z,255.87
2019-02-19T07:36:19.307Z,240.07
2019-02-19T07:38:23.567Z,240.20
2019-02-19T07:40:28.047Z,455.47
2019-02-19T07:42:32.349Z,440.53
2019-02-19T07:44:36.689Z,478.97
2019-02-19T07:46:41.445Z,507.70
2019-02-19T07:48:49.621Z,465.27
2019-02-19T07:50:56.657Z,405.37
2019-02-19T07:53:03.417Z,390.53
2019-02-19T07:55:07.873Z,384.13
2019-02-19T07:57:12.201Z,376.70
2019-02-19T07:59:16.510Z,373.40
2019-02-19T08:01:20.716Z,379.07
2019-02-19T08:03:25.112Z,368.80
2019-02-19T08:05:30.581Z,366.10
2019-02-19T08:07:34.725Z,363.90
2019-02-19T08:09:39.042Z,364.10
2019-02-19T08:11:43.637Z,438.97
2019-02-19T08:13:47.905Z,520.53
2019-02-19T08:15:53.070Z,576.70
2019-02-19T08:18:04.937Z,624.73
2019-02-19T08:20:16.224Z,571.87
2019-02-19T08:22:17.797Z,563.50
2019-02-19T08:24:22.412Z,532.50
2019-02-19T08:26:27.612Z,524.57
2019-02-19T08:28:32.259Z,497.40
2019-02-19T08:30:36.851Z,494.87
2019-02-19T08:32:41.217Z,481.10
2019-02-19T08:34:45.658Z,477.93
2019-02-19T08:36:50.384Z,463.00
2019-02-19T08:38:54.961Z,457.50
2019-02-19T08:40:59.278Z,449.63
2019-02-19T08:43:06.583Z,440.40
2019-02-19T08:45:14.369Z,423.03
2019-02-19T08:47:18.692Z,412.83
2019-02-19T08:49:23.111Z,412.53
2019-02-19T08:51:27.944Z,404.93
2019-02-19T08:53:33.829Z,396.90
2019-02-19T08:55:41.005Z,390.23
2019-02-19T08:57:48.287Z,383.90
2019-02-19T08:59:56.036Z,384.30
2019-02-19T09:01:59.956Z,362.90
2019-02-19T09:04:05.410Z,367.20
2019-02-19T09:06:09.922Z,361.53
2019-02-19T09:08:14.189Z,350.47
2019-02-19T09:10:21.949Z,332.53
2019-02-19T09:12:26.719Z,343.93
2019-02-19T09:14:31.934Z,332.83
2019-02-19T09:16:36.236Z,329.00
2019-02-19T09:18:41.784Z,318.33
2019-02-19T09:20:51.522Z,320.23
2019-02-19T09:23:01.288Z,311.97
2019-02-19T09:25:08.629Z,308.20
2019-02-19T09:27:14.672Z,300.97
2019-02-19T09:29:18.922Z,295.97
2019-02-19T09:31:23.221Z,279.27
2019-02-19T09:33:28.673Z,283.97
2019-02-19T09:35:39.805Z,275.80
2019-02-19T09:37:45.416Z,267.60
2019-02-19T09:39:53.986Z,264.40
2019-02-19T09:42:05.265Z,248.80
2019-02-19T09:44:11.157Z,246.53
2019-02-19T09:46:21.811Z,244.50
2019-02-19T09:48:26.161Z,241.03
2019-02-19T09:50:32.243Z,228.93
2019-02-19T09:52:39.917Z,222.40
2019-02-19T09:54:46.343Z,218.90
2019-02-19T09:56:58.107Z,220.20
2019-02-19T09:59:06.836Z,196.07
2019-02-19T10:01:14.618Z,188.37
2019-02-19T10:03:24.800Z,189.57
2019-02-19T10:05:29.118Z,188.33
2019-02-19T10:07:43.764Z,194.50
2019-02-19T10:09:54.147Z,184.50
2019-02-19T10:12:22.006Z,186.43
2019-02-19T10:14:35.591Z,180.77
2019-02-19T10:16:41.824Z,178.50
2019-02-19T10:18:48.938Z,176.07
2019-02-19T10:20:59.728Z,166.93
2019-02-19T10:23:13.331Z,169.03
2019-02-19T10:25:18.809Z,164.33
2019-02-19T10:27:28.152Z,160.20
2019-02-19T10:29:31.760Z,155.90
2019-02-19T10:31:37.158Z,157.13
2019-02-19T10:33:41.692Z,149.60
2019-02-19T10:35:45.929Z,149.10
2019-02-19T10:37:51.834Z,144.03
2019-02-19T10:39:58.264Z,143.07
2019-02-19T10:42:05.185Z,139.33
2019-02-19T10:44:22.132Z,136.33
2019-02-19T10:46:28.145Z,135.07
2019-02-19T10:48:32.305Z,135.33
2019-02-19T10:50:41.274Z,130.13
2019-02-19T10:52:48.037Z,127.90
2019-02-19T10:55:00.827Z,122.53
2019-02-19T10:57:10.242Z,120.30
2019-02-19T10:59:20.542Z,119.60
2019-02-19T11:01:27.512Z,118.03
2019-02-19T11:03:35.964Z,116.23
2019-02-19T11:05:53.601Z,113.57
2019-02-19T11:07:58.887Z,110.30
2019-02-19T11:10:04.179Z,110.87
2019-02-19T11:12:08.997Z,104.60
2019-02-19T11:14:13.336Z,100.97
2019-02-19T11:16:19.254Z,99.97
2019-02-19T11:18:28.447Z,101.47
2019-02-19T11:20:32.184Z,97.07
2019-02-19T11:22:37.217Z,99.50
2019-02-19T11:24:46.651Z,97.57
2019-02-19T11:26:58.611Z,96.30
2019-02-19T11:29:02.755Z,87.13
2019-02-19T11:31:07.924Z,88.70
2019-02-19T11:33:12.155Z,87.20
2019-02-19T11:35:16.833Z,83.67
2019-02-19T11:37:21.152Z,83.13
2019-02-19T11:39:25.437Z,80.97
2019-02-19T11:41:29.591Z,76.30
2019-02-19T11:43:34.223Z,84.23
2019-02-19T11:45:38.519Z,77.47
2019-02-19T11:47:43.683Z,75.70
2019-02-19T11:49:51.851Z,71.67
2019-02-19T11:52:04.026Z,68.90
2019-02-19T11:54:08.385Z,69.43
2019-02-19T11:56:14.153Z,69.73
2019-02-19T11:58:19.167Z,68.67
2019-02-19T12:00:32.176Z,66.03
2019-02-19T12:02:36.457Z,64.50
2019-02-19T12:04:41.182Z,61.17
2019-02-19T12:06:46.179Z,63.87
2019-02-19T12:08:55.354Z,60.33
2019-02-19T12:11:07.254Z,59.30
2019-02-19T12:13:16.549Z,59.90
2019-02-19T12:15:20.939Z,59.00
2019-02-19T12:17:27.552Z,58.63
2019-02-19T12:19:34.201Z,55.30
2019-02-19T12:21:38.619Z,54.20
2019-02-19T12:23:44.120Z,53.90
2019-02-19T12:25:49.586Z,51.70
2019-02-19T12:27:58.911Z,48.87
2019-02-19T12:30:09.132Z,50.90
2019-02-19T12:32:13.634Z,51.87
2019-02-19T12:34:24.652Z,45.90
2019-02-19T12:36:29.417Z,47.63
2019-02-19T12:38:38.556Z,47.83
2019-02-19T12:40:47.126Z,47.63
2019-02-19T12:42:52.397Z,44.53
2019-02-19T12:45:03.881Z,44.60
2019-02-19T12:47:10.256Z,42.50
2019-02-19T12:49:19.308Z,43.20
2019-02-19T12:51:26.360Z,39.90
2019-02-19T12:53:30.031Z,41.13
2019-02-19T12:55:35.032Z,40.27
2019-02-19T12:57:39.324Z,39.70
2019-02-19T12:59:43.676Z,36.43
2019-02-19T13:01:48.225Z,37.83
2019-02-19T13:03:52.392Z,34.90
2019-02-19T13:05:57.123Z,36.50
2019-02-19T13:08:04.605Z,35.23
2019-02-19T13:10:12.003Z,35.37
2019-02-19T13:12:25.477Z,34.50
2019-02-19T13:14:29.899Z,33.50
2019-02-19T13:16:34.115Z,33.23
2019-02-19T13:18:39.171Z,31.90
2019-02-19T13:20:43.682Z,30.67
2019-02-19T13:22:49.299Z,30.50
2019-02-19T13:25:05.124Z,29.43
2019-02-19T13:27:09.695Z,29.63
2019-02-19T13:29:15.188Z,29.40
2019-02-19T13:31:20.247Z,27.63
2019-02-19T13:33:25.037Z,27.50
2019-02-19T13:35:29.847Z,28.37
2019-02-19T13:37:35.584Z,25.33
2019-02-19T13:39:43.880Z,26.00
2019-02-19T13:41:54.409Z,24.50
2019-02-19T13:43:58.756Z,25.87
2019-02-19T13:46:03.144Z,24.07
2019-02-19T13:48:07.261Z,23.20
2019-02-19T13:50:14.076Z,22.90
2019-02-19T13:52:24.935Z,22.87
2019-02-19T13:54:37.466Z,22.60
2019-02-19T13:56:45.191Z,21.87
2019-02-19T13:58:52.929Z,21.30
2019-02-19T14:01:00.877Z,20.67
2019-02-19T14:03:05.150Z,20.93
2019-02-19T14:05:09.468Z,20.80
2019-02-19T14:07:13.695Z,19.70
2019-02-19T14:09:18.493Z,20.77
2019-02-19T14:11:29.389Z,19.17
2019-02-19T14:13:33.923Z,19.17
2019-02-19T14:15:49.839Z,18.00
2019-02-19T14:18:00.388Z,16.70
2019-02-19T14:20:30.070Z,17.90
2019-02-19T14:23:04.699Z,15.90
2019-02-19T14:25:26.932Z,17.10
2019-02-19T14:27:56.936Z,15.97
2019-02-19T14:30:18.767Z,15.80
2019-02-19T14:32:47.407Z,14.40
2019-02-19T14:35:12.739Z,15.23
2019-02-19T14:37:34.005Z,14.80
2019-02-19T14:39:56.108Z,14.93
2019-02-19T14:42:33.498Z,14.70
2019-02-19T14:45:03.964Z,14.20
2019-02-19T14:47:29.209Z,14.43
2019-02-19T14:50:04.897Z,14.10
2019-02-19T14:52:33.089Z,150.17
2019-02-19T14:55:06.106Z,234.60
2019-02-19T14:57:32.449Z,173.37
2019-02-19T15:00:22.927Z,183.00
2019-02-19T15:02:46.558Z,193.13
2019-02-19T15:05:10.308Z,205.80
2019-02-19T15:07:35.831Z,179.53
2019-02-19T15:10:06.689Z,176.83
2019-02-19T15:12:32.898Z,173.83
2019-02-19T15:15:19.583Z,163.03
2019-02-19T15:20:10.439Z,278.90
2019-02-19T15:22:34.379Z,150.00
2019-02-19T15:24:53.924Z,146.73
2019-02-19T15:27:12.609Z,136.07
2019-02-19T15:29:44.170Z,137.97
2019-02-19T15:32:06.612Z,133.30
2019-02-19T15:34:40.688Z,131.53
2019-02-19T15:37:17.052Z,134.20
2019-02-19T15:39:50.391Z,122.00
2019-02-19T15:42:21.116Z,119.57
2019-02-19T15:44:38.509Z,106.20
2019-02-19T15:47:18.435Z,105.20
2019-02-19T15:49:47.660Z,117.37
2019-02-19T15:52:12.545Z,111.60
2019-02-19T15:54:43.566Z,105.27
2019-02-19T15:57:03.708Z,96.17
2019-02-19T15:59:26.064Z,131.10
2019-02-19T16:01:55.363Z,90.53
2019-02-19T16:04:16.307Z,88.80
2019-02-19T16:06:36.452Z,173.27
2019-02-19T16:09:04.229Z,181.63
2019-02-19T16:11:20.573Z,251.00
2019-02-19T16:13:41.225Z,252.33
2019-02-19T16:16:08.545Z,286.73
2019-02-19T16:18:28.251Z,264.03
2019-02-19T16:20:51.668Z,278.77
2019-02-19T16:23:14.310Z,261.70
2019-02-19T16:25:53.282Z,260.33
2019-02-19T16:28:36.330Z,242.50
2019-02-19T16:31:06.614Z,249.10
2019-02-19T16:33:40.183Z,252.33
2019-02-19T16:36:02.588Z,235.23
2019-02-19T16:38:21.025Z,232.13
2019-02-19T16:40:36.319Z,235.07
2019-02-19T16:43:01.356Z,214.13
2019-02-19T16:45:28.354Z,218.50
2019-02-19T16:47:57.405Z,219.17
2019-02-19T16:50:20.578Z,208.40
2019-02-19T16:52:44.812Z,207.83
2019-02-19T16:54:58.975Z,193.50
2019-02-19T16:57:21.289Z,190.03
2019-02-19T16:59:51.729Z,194.27
2019-02-19T17:02:17.311Z,180.13
2019-02-19T17:04:40.168Z,174.80
2019-02-19T17:07:01.635Z,170.40
2019-02-19T17:09:25.154Z,168.70
2019-02-19T17:12:06.534Z,163.33
2019-02-19T17:14:33.286Z,156.63
2019-02-19T17:16:54.212Z,154.77
2019-02-19T17:19:16.933Z,153.13
2019-02-19T17:22:00.626Z,147.83
2019-02-19T17:24:14.539Z,140.70
2019-02-19T17:26:39.909Z,138.77
2019-02-19T17:29:12.040Z,134.20
2019-02-19T17:31:35.508Z,136.33
2019-02-19T17:34:05.243Z,133.33
2019-02-19T17:36:40.825Z,129.27
2019-02-19T17:38:56.806Z,124.33
2019-02-19T17:41:10.011Z,122.67
2019-02-19T17:43:20.247Z,122.77
2019-02-19T17:45:44.286Z,118.10
2019-02-19T17:48:24.172Z,115.90
2019-02-19T17:50:41.470Z,111.20
2019-02-19T17:53:16.708Z,108.10
2019-02-19T17:55:40.424Z,102.83
2019-02-19T17:58:03.516Z,98.30
2019-02-19T18:00:17.548Z,97.70
2019-02-19T18:02:31.193Z,95.00
2019-02-19T18:04:53.634Z,90.70
2019-02-19T18:07:16.932Z,87.20
2019-02-19T18:09:31.842Z,91.70
2019-02-19T18:11:43.624Z,84.20
2019-02-19T18:14:05.552Z,85.80
2019-02-19T18:16:28.483Z,82.83
2019-02-19T18:18:49.304Z,81.07
2019-02-19T18:20:55.652Z,77.47
2019-02-19T18:22:59.929Z,79.40
2019-02-19T18:25:04.647Z,73.07
2019-02-19T18:27:10.197Z,72.77
2019-02-19T18:29:14.393Z,70.57
2019-02-19T18:31:18.605Z,68.40
2019-02-19T18:33:22.965Z,69.20
2019-02-19T18:35:27.459Z,65.07
2019-02-19T18:37:32.590Z,64.70
2019-02-19T18:39:36.828Z,63.10
2019-02-19T18:41:41.141Z,61.50
2019-02-19T18:43:45.402Z,59.87
2019-02-19T18:45:49.564Z,59.43
2019-02-19T18:47:53.729Z,57.03
2019-02-19T18:49:58.185Z,55.80
2019-02-19T18:52:03.946Z,55.50
2019-02-19T18:54:11.923Z,54.67
2019-02-19T18:56:22.873Z,51.53
2019-02-19T18:58:27.193Z,51.70
2019-02-19T19:00:34.252Z,49.90
2019-02-19T19:02:38.417Z,47.20
2019-02-19T19:04:42.658Z,48.07
2019-02-19T19:06:46.820Z,47.20
2019-02-19T19:08:52.269Z,47.53
2019-02-19T19:10:57.499Z,44.23
2019-02-19T19:13:01.744Z,43.30
2019-02-19T19:15:07.173Z,42.67
2019-02-19T19:17:15.351Z,42.17
2019-02-19T19:19:24.267Z,40.37
2019-02-19T19:21:31.327Z,39.47
2019-02-19T19:23:35.683Z,38.67
2019-02-19T19:25:40.036Z,39.30
2019-02-19T19:27:44.272Z,39.70
2019-02-19T19:29:48.700Z,37.30
2019-02-19T19:31:53.085Z,36.53
2019-02-19T19:33:57.428Z,37.17
2019-02-19T19:36:03.254Z,34.50
2019-02-19T19:38:07.527Z,34.60
2019-02-19T19:40:11.767Z,34.07
2019-02-19T19:42:19.311Z,35.87
2019-02-19T19:44:26.832Z,34.60
2019-02-19T19:46:33.114Z,32.20
2019-02-19T19:48:37.535Z,34.37
2019-02-19T19:50:42.393Z,33.03
2019-02-19T19:52:46.720Z,31.93
2019-02-19T19:54:51.008Z,30.90
2019-02-19T19:56:55.496Z,30.80
2019-02-19T19:58:59.776Z,28.83
2019-02-19T20:01:04.333Z,29.27
2019-02-19T20:03:08.545Z,30.03
2019-02-19T20:05:12.902Z,28.03
2019-02-19T20:07:18.185Z,28.60
2019-02-19T20:09:25.050Z,29.10
2019-02-19T20:11:31.278Z,28.10
2019-02-19T20:13:36.565Z,28.00
2019-02-19T20:15:40.884Z,25.23
2019-02-19T20:17:45.421Z,26.53
2019-02-19T20:19:49.631Z,27.53
2019-02-19T20:21:53.841Z,27.17
2019-02-19T20:23:58.008Z,25.20
2019-02-19T20:26:02.333Z,24.63
2019-02-19T20:28:06.508Z,24.90
2019-02-19T20:30:11.083Z,23.87
2019-02-19T20:32:15.401Z,24.77
2019-02-19T20:34:19.592Z,23.90
2019-02-19T20:36:24.972Z,23.43
2019-02-19T20:38:30.578Z,22.37
2019-02-19T20:40:35.294Z,23.50
2019-02-19T20:42:40.341Z,23.03
2019-02-19T20:44:44.583Z,21.60
2019-02-19T20:46:48.879Z,21.10
2019-02-19T20:48:53.061Z,22.83
2019-02-19T20:50:57.349Z,21.40
2019-02-19T20:53:01.859Z,21.13
2019-02-19T20:55:06.255Z,21.13
2019-02-19T20:57:10.534Z,19.50
2019-02-19T20:59:14.686Z,20.20
2019-02-19T21:01:19.522Z,19.00
2019-02-19T21:03:24.559Z,19.97
2019-02-19T21:05:32.718Z,19.50
2019-02-19T21:07:38.823Z,16.80
2019-02-19T21:09:44.279Z,18.63
2019-02-19T21:11:50.775Z,16.87
2019-02-19T21:13:55.992Z,17.60
2019-02-19T21:16:00.363Z,18.13
2019-02-19T21:18:04.880Z,17.33
2019-02-19T21:20:09.811Z,15.00
2019-02-19T21:22:14.041Z,16.80
2019-02-19T21:24:18.496Z,15.90
2019-02-19T21:26:27.041Z,16.50
2019-02-19T21:28:31.376Z,15.60
2019-02-19T21:30:35.549Z,16.07
2019-02-19T21:32:39.835Z,16.57
2019-02-19T21:34:45.415Z,15.40
2019-02-19T21:36:50.052Z,15.93
2019-02-19T21:38:54.224Z,16.30
2019-02-19T21:40:58.455Z,21.07
2019-02-19T21:43:03.511Z,16.83
2019-02-19T21:45:11.577Z,31.27
2019-02-19T21:47:20.619Z,26.07
2019-02-19T21:49:25.065Z,26.97
2019-02-19T21:51:29.442Z,50.20
2019-02-19T21:53:34.014Z,43.40
2019-02-19T21:55:38.508Z,19.33
2019-02-19T21:57:43.030Z,32.13
2019-02-19T21:59:47.282Z,102.87
2019-02-19T22:01:51.429Z,164.50
2019-02-19T22:03:58.706Z,179.07
2019-02-19T22:06:03.322Z,252.53
2019-02-19T22:08:08.866Z,278.43
2019-02-19T22:10:16.861Z,475.67
2019-02-19T22:12:27.490Z,321.13
2019-02-19T22:14:32.696Z,331.30
2019-02-19T22:16:37.198Z,366.40
2019-02-19T22:18:41.551Z,239.57
2019-02-19T22:20:56.194Z,222.63
2019-02-19T22:23:01.301Z,200.10
2019-02-19T22:25:05.956Z,186.37
2019-02-19T22:27:10.834Z,175.67
2019-02-19T22:29:19.502Z,178.53
2019-02-19T22:31:26.009Z,177.07
2019-02-19T22:33:31.523Z,251.47
2019-02-19T22:35:35.920Z,183.27
2019-02-19T22:37:40.587Z,187.40
2019-02-19T22:39:44.923Z,163.17
2019-02-19T22:41:49.601Z,152.07
2019-02-19T22:43:57.376Z,148.87
2019-02-19T22:46:05.278Z,154.67
2019-02-19T22:48:09.636Z,149.80
2019-02-19T22:50:14.148Z,346.27
2019-02-19T22:52:19.258Z,231.80
2019-02-19T22:54:34.693Z,151.13
2019-02-19T22:56:41.573Z,142.20
2019-02-19T22:58:47.398Z,136.40
2019-02-19T23:01:16.671Z,127.27
2019-02-19T23:03:24.714Z,122.17
2019-02-19T23:05:30.899Z,115.20
2019-02-19T23:07:35.254Z,111.27
2019-02-19T23:09:39.971Z,133.07
2019-02-19T23:11:45.474Z,450.07
2019-02-19T23:13:53.690Z,354.80
2019-02-19T23:16:03.019Z,277.30
2019-02-19T23:18:19.177Z,282.53
2019-02-19T23:20:23.391Z,285.67
2019-02-19T23:22:28.361Z,281.57
2019-02-19T23:24:32.674Z,277.47
2019-02-19T23:26:37.110Z,276.77
2019-02-19T23:28:41.749Z,286.37
2019-02-19T23:30:45.947Z,390.03
2019-02-19T23:32:50.815Z,417.20
2019-02-19T23:35:31.222Z,438.10
2019-02-19T23:37:35.727Z,409.90
2019-02-19T23:39:43.668Z,406.50
2019-02-19T23:41:47.145Z,415.57
2019-02-19T23:43:51.445Z,434.37
2019-02-19T23:45:55.915Z,481.30
2019-02-19T23:48:03.802Z,613.07
2019-02-19T23:50:14.519Z,497.77
2019-02-19T23:52:30.197Z,430.47
2019-02-19T23:54:27.061Z,394.10
2019-02-19T23:56:31.313Z,384.93
2019-02-19T23:58:35.716Z,388.70
